Time,TemperatureF,DewpointF,PressureIn,WindDirection,WindDirectionDegrees,WindSpeedMPH,WindSpeedGustMPH,Humidity,HourlyPrecipIn,Conditions,Clouds,dailyrainin,SoftwareType,DateUTC
2013-05-17 00:00:00,67.1,62.4,29.90,NE,45,3.1,4.5,81,0.00,,,0.00,fowsr,2013-05-17 04:00:00,
2013-05-17 00:05:00,67.1,62.4,29.90,East,90,3.1,4.5,81,0.00,,,0.00,fowsr,2013-05-17 04:05:00,
2013-05-17 00:10:00,67.1,62.4,29.90,SE,135,2.2,3.1,81,0.00,,,0.00,fowsr,2013-05-17 04:10:00,
2013-05-17 00:15:00,66.9,62.2,29.90,SE,135,2.2,4.5,81,0.00,,,0.00,fowsr,2013-05-17 04:15:00,
2013-05-17 00:20:00,66.7,62.1,29.90,North,0,1.6,3.1,81,0.00,,,0.00,fowsr,2013-05-17 04:20:00,
2013-05-17 00:25:00,66.6,61.9,29.90,NE,45,2.2,3.8,81,0.00,,,0.00,fowsr,2013-05-17 04:25:00,
2013-05-17 00:30:00,66.2,61.8,29.91,East,90,1.6,3.1,82,0.00,,,0.00,fowsr,2013-05-17 04:30:00,
2013-05-17 00:35:00,66.0,61.9,29.91,East,90,2.2,3.8,83,0.00,,,0.00,fowsr,2013-05-17 04:35:00,
2013-05-17 00:40:00,65.8,62.0,29.91,NE,45,2.2,3.1,84,0.00,,,0.00,fowsr,2013-05-17 04:40:00,
2013-05-17 00:45:00,66.0,62.4,29.91,NE,45,1.6,5.4,85,0.00,,,0.00,fowsr,2013-05-17 04:45:00,
2013-05-17 00:50:00,66.2,62.3,29.91,SE,135,1.6,4.5,84,0.00,,,0.00,fowsr,2013-05-17 04:50:00,
2013-05-17 00:55:00,66.6,62.4,29.91,South,180,3.1,5.4,83,0.00,,,0.00,fowsr,2013-05-17 04:55:00,
2013-05-17 01:00:00,66.6,62.1,29.91,NE,45,2.2,6.0,82,0.00,,,0.00,fowsr,2013-05-17 05:00:00,
2013-05-17 01:05:00,66.7,62.1,29.91,East,90,2.2,5.4,81,0.00,,,0.00,fowsr,2013-05-17 05:05:00,
2013-05-17 01:10:00,66.6,61.9,29.91,North,0,1.6,3.8,81,0.00,,,0.00,fowsr,2013-05-17 05:10:00,
2013-05-17 01:15:00,66.4,61.7,29.91,ESE,112,1.6,3.8,81,0.00,,,0.00,fowsr,2013-05-17 05:15:00,
2013-05-17 01:20:00,66.6,61.9,29.91,NE,45,3.1,6.9,81,0.00,,,0.00,fowsr,2013-05-17 05:20:00,
2013-05-17 01:25:00,66.6,61.9,29.91,NW,315,1.6,2.2,81,0.00,,,0.00,fowsr,2013-05-17 05:25:00,
2013-05-17 01:30:00,66.2,61.5,29.91,South,180,2.2,5.4,81,0.00,,,0.00,fowsr,2013-05-17 05:30:00,
2013-05-17 01:35:00,66.2,61.5,29.91,North,0,0.7,3.1,81,0.00,,,0.00,fowsr,2013-05-17 05:35:00,
2013-05-17 01:45:00,65.8,61.7,29.92,SE,135,1.6,3.8,83,0.00,,,0.00,fowsr,2013-05-17 05:45:00,
2013-05-17 01:50:00,65.7,61.5,29.91,SE,135,0.7,3.8,83,0.00,,,0.00,fowsr,2013-05-17 05:50:00,
2013-05-17 02:00:00,65.3,61.5,29.92,North,0,1.6,3.8,84,0.00,,,0.00,fowsr,2013-05-17 06:00:00,
2013-05-17 02:05:00,65.3,61.7,29.93,NW,315,0.7,1.6,85,0.00,,,0.00,fowsr,2013-05-17 06:05:00,
2013-05-17 02:10:00,65.1,61.5,29.93,NE,45,0.7,1.6,85,0.00,,,0.00,fowsr,2013-05-17 06:10:00,
2013-05-17 02:15:00,64.9,61.4,29.93,SE,135,0.7,3.1,85,0.00,,,0.00,fowsr,2013-05-17 06:15:00,
2013-05-17 02:20:00,64.8,61.2,29.93,NE,45,0.7,2.2,85,0.00,,,0.00,fowsr,2013-05-17 06:20:00,
2013-05-17 02:25:00,64.8,61.4,29.94,SW,225,1.6,3.1,86,0.00,,,0.00,fowsr,2013-05-17 06:25:00,
2013-05-17 02:30:00,64.8,61.4,29.94,NE,45,0.7,2.2,86,0.00,,,0.00,fowsr,2013-05-17 06:30:00,
2013-05-17 02:35:00,64.8,61.4,29.94,NW,315,1.6,3.1,86,0.00,,,0.00,fowsr,2013-05-17 06:35:00,
2013-05-17 02:40:00,64.6,61.3,29.94,East,90,0.7,2.2,86,0.00,,,0.00,fowsr,2013-05-17 06:40:00,
2013-05-17 02:45:00,64.6,61.5,29.94,SW,225,1.6,2.2,87,0.00,,,0.00,fowsr,2013-05-17 06:45:00,
2013-05-17 02:50:00,64.4,61.3,29.95,NW,315,0.7,3.1,87,0.00,,,0.00,fowsr,2013-05-17 06:50:00,
2013-05-17 02:55:00,64.2,61.2,29.95,West,270,0.7,2.2,87,0.00,,,0.00,fowsr,2013-05-17 06:55:00,
2013-05-17 03:00:00,64.0,61.0,29.95,NW,315,0.7,2.2,87,0.00,,,0.00,fowsr,2013-05-17 07:00:00,
2013-05-17 03:05:00,64.0,61.2,29.95,North,0,0.7,1.6,88,0.00,,,0.00,fowsr,2013-05-17 07:05:00,
2013-05-17 03:10:00,64.0,61.2,29.95,NW,315,1.6,2.2,88,0.00,,,0.00,fowsr,2013-05-17 07:10:00,
2013-05-17 03:15:00,64.0,61.5,29.96,SW,225,2.2,4.5,89,0.00,,,0.00,fowsr,2013-05-17 07:15:00,
2013-05-17 03:20:00,64.0,61.5,29.96,SW,225,1.6,3.1,89,0.00,,,0.00,fowsr,2013-05-17 07:20:00,
2013-05-17 03:25:00,63.9,61.3,29.96,West,270,0.0,0.7,89,0.00,,,0.00,fowsr,2013-05-17 07:25:00,
2013-05-17 03:30:00,63.7,61.1,29.96,SW,225,0.0,1.6,89,0.00,,,0.00,fowsr,2013-05-17 07:30:00,
2013-05-17 03:35:00,63.5,60.9,29.97,SW,225,1.6,3.1,89,0.00,,,0.00,fowsr,2013-05-17 07:35:00,
2013-05-17 03:40:00,63.5,60.9,29.97,SW,225,0.0,1.6,89,0.00,,,0.00,fowsr,2013-05-17 07:40:00,
2013-05-17 03:45:00,63.3,60.8,29.97,NW,315,0.0,0.7,89,0.00,,,0.00,fowsr,2013-05-17 07:45:00,
2013-05-17 03:50:00,63.1,60.8,29.98,South,180,0.7,2.2,90,0.00,,,0.00,fowsr,2013-05-17 07:50:00,
2013-05-17 03:55:00,63.1,60.8,29.98,SW,225,2.2,4.5,90,0.00,,,0.00,fowsr,2013-05-17 07:55:00,
2013-05-17 04:00:00,63.1,60.8,29.98,East,90,0.7,2.2,90,0.00,,,0.00,fowsr,2013-05-17 08:00:00,
2013-05-17 04:05:00,63.3,61.0,29.98,South,180,1.6,2.2,90,0.00,,,0.00,fowsr,2013-05-17 08:05:00,
2013-05-17 04:10:00,63.3,61.0,29.98,SW,225,0.0,0.7,90,0.00,,,0.00,fowsr,2013-05-17 08:10:00,
2013-05-17 04:15:00,63.5,60.9,29.98,SE,135,0.0,0.7,89,0.00,,,0.00,fowsr,2013-05-17 08:15:00,
2013-05-17 04:20:00,63.3,60.5,29.98,South,180,2.2,4.5,88,0.00,,,0.00,fowsr,2013-05-17 08:20:00,
2013-05-17 04:25:00,63.3,60.5,29.98,South,180,0.7,1.6,88,0.00,,,0.00,fowsr,2013-05-17 08:25:00,
2013-05-17 04:30:00,63.3,60.5,29.99,South,180,0.7,1.6,88,0.00,,,0.00,fowsr,2013-05-17 08:30:00,
2013-05-17 04:35:00,63.3,60.5,29.99,South,180,0.7,1.6,88,0.00,,,0.00,fowsr,2013-05-17 08:35:00,
2013-05-17 04:40:00,63.1,60.1,29.99,South,180,1.6,3.1,87,0.00,,,0.00,fowsr,2013-05-17 08:40:00,
2013-05-17 04:45:00,63.0,59.7,29.99,West,270,1.6,3.1,86,0.00,,,0.00,fowsr,2013-05-17 08:45:00,
2013-05-17 04:50:00,62.8,59.5,29.99,SW,225,0.0,1.6,86,0.00,,,0.00,fowsr,2013-05-17 08:50:00,
2013-05-17 04:55:00,62.6,59.3,29.99,West,270,0.7,2.2,86,0.00,,,0.00,fowsr,2013-05-17 08:55:00,
2013-05-17 05:00:00,62.4,59.1,29.99,SW,225,1.6,3.8,86,0.00,,,0.00,fowsr,2013-05-17 09:00:00,
2013-05-17 05:05:00,62.4,58.9,29.99,South,180,0.7,2.2,85,0.00,,,0.00,fowsr,2013-05-17 09:05:00,
2013-05-17 05:15:00,62.8,58.0,30.00,SSW,202,1.6,3.8,80,0.00,,,0.00,fowsr,2013-05-17 09:15:00,
2013-05-17 05:20:00,63.3,57.7,30.00,South,180,0.7,2.2,77,0.00,,,0.00,fowsr,2013-05-17 09:20:00,
2013-05-17 05:25:00,63.3,57.1,30.00,SW,225,0.7,2.2,75,0.00,,,0.00,fowsr,2013-05-17 09:25:00,
2013-05-17 05:30:00,63.1,56.6,30.00,SW,225,2.2,4.5,74,0.00,,,0.00,fowsr,2013-05-17 09:30:00,
2013-05-17 05:35:00,63.1,56.4,30.01,SW,225,2.2,3.8,73,0.00,,,0.00,fowsr,2013-05-17 09:35:00,
2013-05-17 05:40:00,63.3,56.2,30.01,SW,225,3.1,6.0,72,0.00,,,0.00,fowsr,2013-05-17 09:40:00,
2013-05-17 05:45:00,63.5,56.1,30.01,South,180,1.6,2.2,71,0.00,,,0.00,fowsr,2013-05-17 09:45:00,
2013-05-17 05:50:00,63.7,56.3,30.02,NW,315,0.7,2.2,71,0.00,,,0.00,fowsr,2013-05-17 09:50:00,
2013-05-17 05:55:00,63.5,56.1,30.02,West,270,1.6,2.2,71,0.00,,,0.00,fowsr,2013-05-17 09:55:00,
2013-05-17 06:00:00,63.5,56.1,30.02,SSW,202,1.6,3.1,71,0.00,,,0.00,fowsr,2013-05-17 10:00:00,
2013-05-17 06:05:00,63.5,56.1,30.03,SW,225,1.6,2.2,71,0.00,,,0.00,fowsr,2013-05-17 10:05:00,
2013-05-17 06:10:00,63.3,55.9,30.03,South,180,0.7,2.2,71,0.00,,,0.00,fowsr,2013-05-17 10:10:00,
2013-05-17 06:15:00,63.1,55.8,30.03,South,180,0.0,2.2,71,0.00,,,0.00,fowsr,2013-05-17 10:15:00,
2013-05-17 06:20:00,63.0,55.9,30.04,West,270,0.0,0.7,72,0.00,,,0.00,fowsr,2013-05-17 10:20:00,
2013-05-17 06:25:00,63.0,55.9,30.04,East,90,0.0,1.6,72,0.00,,,0.00,fowsr,2013-05-17 10:25:00,
2013-05-17 06:30:00,63.5,56.7,30.04,SW,225,0.0,0.7,73,0.00,,,0.00,fowsr,2013-05-17 10:30:00,
2013-05-17 06:40:00,64.6,57.7,30.05,WSW,247,1.6,2.2,73,0.00,,,0.00,fowsr,2013-05-17 10:40:00,
2013-05-17 06:45:00,65.1,57.7,30.05,SE,135,1.6,2.2,71,0.00,,,0.00,fowsr,2013-05-17 10:45:00,
2013-05-17 06:50:00,65.7,57.9,30.06,North,0,0.0,0.7,70,0.00,,,0.00,fowsr,2013-05-17 10:50:00,
2013-05-17 06:55:00,66.0,57.9,30.06,SE,135,0.0,1.6,69,0.00,,,0.00,fowsr,2013-05-17 10:55:00,
2013-05-17 07:00:00,66.4,57.3,30.07,South,180,2.2,5.4,66,0.00,,,0.00,fowsr,2013-05-17 11:00:00,
2013-05-17 07:05:00,66.7,57.0,30.07,SW,225,2.2,4.5,64,0.00,,,0.00,fowsr,2013-05-17 11:05:00,
2013-05-17 07:10:00,66.9,56.5,30.07,South,180,3.8,6.9,62,0.00,,,0.00,fowsr,2013-05-17 11:10:00,
2013-05-17 07:15:00,67.3,56.5,30.07,SW,225,2.2,4.5,61,0.00,,,0.00,fowsr,2013-05-17 11:15:00,
2013-05-17 07:20:00,67.6,57.2,30.07,SW,225,2.2,3.8,62,0.00,,,0.00,fowsr,2013-05-17 11:20:00,
2013-05-17 07:25:00,67.8,57.3,30.08,South,180,2.2,3.1,62,0.00,,,0.00,fowsr,2013-05-17 11:25:00,
2013-05-17 07:30:00,68.0,57.1,30.08,West,270,0.7,2.2,61,0.00,,,0.00,fowsr,2013-05-17 11:30:00,
2013-05-17 07:35:00,68.2,56.6,30.08,NE,45,0.7,1.6,59,0.00,,,0.00,fowsr,2013-05-17 11:35:00,
2013-05-17 07:40:00,68.4,56.0,30.08,South,180,1.6,3.1,57,0.00,,,0.00,fowsr,2013-05-17 11:40:00,
2013-05-17 07:45:00,68.5,55.1,30.08,SW,225,3.8,7.6,54,0.00,,,0.00,fowsr,2013-05-17 11:45:00,
2013-05-17 07:50:00,68.7,56.0,30.08,North,0,1.6,2.2,56,0.00,,,0.00,fowsr,2013-05-17 11:50:00,
2013-05-17 07:55:00,68.7,55.2,30.09,South,180,5.4,6.9,54,0.00,,,0.00,fowsr,2013-05-17 11:55:00,
2013-05-17 08:00:00,69.1,55.6,30.09,West,270,4.5,8.3,54,0.00,,,0.00,fowsr,2013-05-17 12:00:00,
2013-05-17 08:05:00,69.1,54.8,30.09,South,180,2.2,3.1,52,0.00,,,0.00,fowsr,2013-05-17 12:05:00,
2013-05-17 08:10:00,69.1,55.2,30.09,South,180,3.8,6.9,53,0.00,,,0.00,fowsr,2013-05-17 12:10:00,
2013-05-17 08:15:00,69.3,55.3,30.10,SW,225,4.5,9.2,53,0.00,,,0.00,fowsr,2013-05-17 12:15:00,
2013-05-17 08:20:00,69.4,54.7,30.10,South,180,3.8,6.0,51,0.00,,,0.00,fowsr,2013-05-17 12:20:00,
2013-05-17 08:25:00,69.6,54.0,30.10,South,180,4.5,6.9,49,0.00,,,0.00,fowsr,2013-05-17 12:25:00,
2013-05-17 08:30:00,69.6,52.7,30.10,South,180,3.8,6.9,46,0.00,,,0.00,fowsr,2013-05-17 12:30:00,
2013-05-17 08:35:00,69.8,52.0,30.10,South,180,7.6,11.4,44,0.00,,,0.00,fowsr,2013-05-17 12:35:00,
2013-05-17 08:40:00,69.8,51.5,30.10,SW,225,4.5,7.6,43,0.00,,,0.00,fowsr,2013-05-17 12:40:00,
2013-05-17 08:45:00,70.0,51.7,30.10,South,180,4.5,6.9,43,0.00,,,0.00,fowsr,2013-05-17 12:45:00,
2013-05-17 08:50:00,70.3,52.0,30.11,SW,225,6.0,13.0,43,0.00,,,0.00,fowsr,2013-05-17 12:50:00,
2013-05-17 08:55:00,70.5,49.6,30.11,SW,225,6.9,13.0,38,0.00,,,0.00,fowsr,2013-05-17 12:55:00,
2013-05-17 09:00:00,70.2,50.9,30.11,SW,225,5.4,11.4,41,0.00,,,0.00,fowsr,2013-05-17 13:00:00,
2013-05-17 09:05:00,70.3,50.5,30.11,SE,135,2.2,6.0,40,0.00,,,0.00,fowsr,2013-05-17 13:05:00,
2013-05-17 09:10:00,70.5,50.2,30.11,SW,225,3.1,5.4,39,0.00,,,0.00,fowsr,2013-05-17 13:10:00,
2013-05-17 09:15:00,70.7,49.8,30.11,SW,225,5.4,9.8,38,0.00,,,0.00,fowsr,2013-05-17 13:15:00,
2013-05-17 09:20:00,70.7,50.8,30.11,North,0,6.0,9.2,40,0.00,,,0.00,fowsr,2013-05-17 13:20:00,
2013-05-17 09:25:00,70.7,49.8,30.11,SW,225,5.4,9.8,38,0.00,,,0.00,fowsr,2013-05-17 13:25:00,
2013-05-17 09:30:00,70.9,52.0,30.11,SE,135,3.1,6.9,42,0.00,,,0.00,fowsr,2013-05-17 13:30:00,
2013-05-17 09:35:00,71.2,51.3,30.11,South,180,1.6,3.1,40,0.00,,,0.00,fowsr,2013-05-17 13:35:00,
2013-05-17 09:40:00,71.4,52.5,30.11,South,180,1.6,3.1,42,0.00,,,0.00,fowsr,2013-05-17 13:40:00,
2013-05-17 09:45:00,71.4,52.0,30.11,SW,225,4.5,6.9,41,0.00,,,0.00,fowsr,2013-05-17 13:45:00,
2013-05-17 09:50:00,71.2,51.8,30.11,NW,315,3.8,6.9,41,0.00,,,0.00,fowsr,2013-05-17 13:50:00,
2013-05-17 09:55:00,71.2,51.3,30.11,ESE,112,3.1,8.3,40,0.00,,,0.00,fowsr,2013-05-17 13:55:00,
2013-05-17 10:00:00,71.6,50.0,30.11,SE,135,2.2,5.4,37,0.00,,,0.00,fowsr,2013-05-17 14:00:00,
2013-05-17 10:05:00,71.6,51.1,30.12,South,180,4.5,8.3,39,0.00,,,0.00,fowsr,2013-05-17 14:05:00,
2013-05-17 10:10:00,71.8,51.8,30.12,South,180,3.8,6.9,40,0.00,,,0.00,fowsr,2013-05-17 14:10:00,
2013-05-17 10:15:00,72.3,52.8,30.12,East,90,3.1,4.5,41,0.00,,,0.00,fowsr,2013-05-17 14:15:00,
2013-05-17 10:20:00,72.0,54.4,30.12,East,90,1.6,3.1,45,0.00,,,0.00,fowsr,2013-05-17 14:20:00,
2013-05-17 10:25:00,71.4,56.1,30.12,East,90,1.6,3.1,50,0.00,,,0.00,fowsr,2013-05-17 14:25:00,
2013-05-17 10:30:00,71.4,53.9,30.12,SE,135,2.2,3.1,45,0.00,,,0.00,fowsr,2013-05-17 14:30:00,
2013-05-17 10:35:00,71.4,53.9,30.13,North,0,1.6,3.8,45,0.00,,,0.00,fowsr,2013-05-17 14:35:00,
2013-05-17 10:40:00,70.9,54.7,30.13,East,90,0.7,2.2,48,0.00,,,0.00,fowsr,2013-05-17 14:40:00,
2013-05-17 10:45:00,70.9,55.6,30.13,SE,135,2.2,3.8,50,0.00,,,0.00,fowsr,2013-05-17 14:45:00,
2013-05-17 10:50:00,71.6,54.5,30.13,SW,225,3.1,5.4,46,0.00,,,0.00,fowsr,2013-05-17 14:50:00,
2013-05-17 10:55:00,72.1,53.6,30.14,East,90,2.2,3.8,43,0.00,,,0.00,fowsr,2013-05-17 14:55:00,
2013-05-17 11:00:00,72.3,56.0,30.13,SE,135,0.7,1.6,48,0.00,,,0.00,fowsr,2013-05-17 15:00:00,
2013-05-17 11:05:00,72.0,57.0,30.14,East,90,1.6,3.1,51,0.00,,,0.00,fowsr,2013-05-17 15:05:00,
2013-05-17 11:10:00,71.6,57.1,30.14,East,90,4.5,6.0,52,0.00,,,0.00,fowsr,2013-05-17 15:10:00,
2013-05-17 11:15:00,70.9,56.4,30.14,SE,135,4.5,6.9,52,0.00,,,0.00,fowsr,2013-05-17 15:15:00,
2013-05-17 11:20:00,70.2,56.6,30.14,NE,45,4.5,6.0,54,0.00,,,0.00,fowsr,2013-05-17 15:20:00,
2013-05-17 11:25:00,69.8,56.6,30.14,East,90,3.8,6.9,55,0.00,,,0.00,fowsr,2013-05-17 15:25:00,
2013-05-17 11:30:00,69.6,56.8,30.14,East,90,6.0,8.3,56,0.00,,,0.00,fowsr,2013-05-17 15:30:00,
2013-05-17 11:35:00,69.4,56.7,30.14,SSE,157,2.2,4.5,56,0.00,,,0.00,fowsr,2013-05-17 15:35:00,
2013-05-17 11:40:00,69.8,56.2,30.14,SE,135,3.8,6.0,54,0.00,,,0.00,fowsr,2013-05-17 15:40:00,
2013-05-17 11:50:00,70.7,57.1,30.14,SE,135,1.6,3.1,54,0.00,,,0.00,fowsr,2013-05-17 15:50:00,
2013-05-17 11:55:00,71.2,57.5,30.14,East,90,4.5,6.9,54,0.00,,,0.00,fowsr,2013-05-17 15:55:00,
2013-05-17 12:00:00,71.1,57.4,30.14,South,180,3.1,5.4,54,0.00,,,0.00,fowsr,2013-05-17 16:00:00,
2013-05-17 12:05:00,71.4,58.1,30.14,ESE,112,1.6,3.1,55,0.00,,,0.00,fowsr,2013-05-17 16:05:00,
2013-05-17 12:15:00,70.5,57.7,30.14,East,90,3.8,7.6,56,0.00,,,0.00,fowsr,2013-05-17 16:15:00,
2013-05-17 12:20:00,70.0,57.9,30.14,East,90,4.5,7.6,58,0.00,,,0.00,fowsr,2013-05-17 16:20:00,
2013-05-17 12:25:00,69.8,57.7,30.14,SE,135,3.8,7.6,58,0.00,,,0.00,fowsr,2013-05-17 16:25:00,
2013-05-17 12:30:00,69.6,57.6,30.14,SE,135,3.8,6.0,58,0.00,,,0.00,fowsr,2013-05-17 16:30:00,
2013-05-17 12:35:00,69.6,57.9,30.14,NE,45,3.1,5.4,59,0.00,,,0.00,fowsr,2013-05-17 16:35:00,
2013-05-17 12:40:00,69.6,57.9,30.14,SE,135,3.8,9.2,59,0.00,,,0.00,fowsr,2013-05-17 16:40:00,
2013-05-17 12:45:00,70.0,58.3,30.14,East,90,3.1,5.4,59,0.00,,,0.00,fowsr,2013-05-17 16:45:00,
2013-05-17 12:50:00,70.5,58.8,30.14,East,90,4.5,6.0,59,0.00,,,0.00,fowsr,2013-05-17 16:50:00,
2013-05-17 12:55:00,70.9,59.1,30.14,NE,45,2.2,3.8,59,0.00,,,0.00,fowsr,2013-05-17 16:55:00,
2013-05-17 13:00:00,71.6,58.7,30.14,East,90,3.1,6.0,56,0.00,,,0.00,fowsr,2013-05-17 17:00:00,
2013-05-17 13:05:00,72.1,58.4,30.14,East,90,3.1,6.0,54,0.00,,,0.00,fowsr,2013-05-17 17:05:00,
2013-05-17 13:10:00,72.0,57.8,30.14,NE,45,6.0,9.2,53,0.00,,,0.00,fowsr,2013-05-17 17:10:00,
2013-05-17 13:20:00,71.6,57.9,30.13,North,0,1.6,3.8,54,0.00,,,0.00,fowsr,2013-05-17 17:20:00,
2013-05-17 13:25:00,71.6,57.9,30.14,NW,315,1.6,3.8,54,0.00,,,0.00,fowsr,2013-05-17 17:25:00,
2013-05-17 13:30:00,72.3,58.1,30.14,SE,135,3.1,3.8,53,0.00,,,0.00,fowsr,2013-05-17 17:30:00,
2013-05-17 13:35:00,72.3,57.7,30.14,SE,135,2.2,3.8,52,0.00,,,0.00,fowsr,2013-05-17 17:35:00,
2013-05-17 13:40:00,72.1,56.7,30.13,East,90,3.1,4.5,50,0.00,,,0.00,fowsr,2013-05-17 17:40:00,
2013-05-17 13:45:00,72.0,57.0,30.14,East,90,3.8,6.0,51,0.00,,,0.00,fowsr,2013-05-17 17:45:00,
2013-05-17 13:50:00,72.5,57.1,30.14,East,90,2.2,4.5,50,0.00,,,0.00,fowsr,2013-05-17 17:50:00,
2013-05-17 13:55:00,72.1,55.0,30.14,West,270,0.7,2.2,46,0.00,,,0.00,fowsr,2013-05-17 17:55:00,
2013-05-17 14:00:00,71.4,56.1,30.13,SE,135,3.1,4.5,50,0.00,,,0.00,fowsr,2013-05-17 18:00:00,
2013-05-17 14:05:00,71.4,56.9,30.14,ENE,67,3.1,5.4,52,0.00,,,0.00,fowsr,2013-05-17 18:05:00,
2013-05-17 14:10:00,71.4,57.3,30.13,NE,45,2.2,3.8,53,0.00,,,0.00,fowsr,2013-05-17 18:10:00,
2013-05-17 14:15:00,72.1,58.4,30.13,East,90,1.6,2.2,54,0.00,,,0.00,fowsr,2013-05-17 18:15:00,
2013-05-17 14:20:00,73.6,58.0,30.13,East,90,3.1,6.0,50,0.00,,,0.00,fowsr,2013-05-17 18:20:00,
2013-05-17 14:25:00,73.2,57.7,30.13,East,90,3.1,6.0,50,0.00,,,0.00,fowsr,2013-05-17 18:25:00,
2013-05-17 14:30:00,73.8,57.3,30.13,SSW,202,2.2,4.5,48,0.00,,,0.00,fowsr,2013-05-17 18:30:00,
2013-05-17 14:35:00,74.1,57.7,30.13,West,270,2.2,3.8,48,0.00,,,0.00,fowsr,2013-05-17 18:35:00,
2013-05-17 14:40:00,74.3,57.4,30.13,SW,225,3.1,5.4,47,0.00,,,0.00,fowsr,2013-05-17 18:40:00,
2013-05-17 14:45:00,74.3,57.4,30.13,NE,45,1.6,3.1,47,0.00,,,0.00,fowsr,2013-05-17 18:45:00,
2013-05-17 14:50:00,74.5,57.5,30.13,NE,45,3.8,5.4,47,0.00,,,0.00,fowsr,2013-05-17 18:50:00,
2013-05-17 14:55:00,74.5,57.5,30.13,South,180,2.2,5.4,47,0.00,,,0.00,fowsr,2013-05-17 18:55:00,
2013-05-17 15:00:00,74.7,58.1,30.13,East,90,1.6,6.9,48,0.00,,,0.00,fowsr,2013-05-17 19:00:00,
2013-05-17 15:05:00,74.8,56.9,30.13,East,90,3.1,5.4,45,0.00,,,0.00,fowsr,2013-05-17 19:05:00,
2013-05-17 15:10:00,75.0,57.1,30.13,SE,135,3.1,4.5,45,0.00,,,0.00,fowsr,2013-05-17 19:10:00,
2013-05-17 15:15:00,75.0,57.1,30.13,NE,45,2.2,4.5,45,0.00,,,0.00,fowsr,2013-05-17 19:15:00,
2013-05-17 15:20:00,75.7,55.8,30.13,East,90,3.8,6.9,41,0.00,,,0.00,fowsr,2013-05-17 19:20:00,
2013-05-17 15:30:00,74.1,53.3,30.12,NE,45,3.8,6.0,39,0.00,,,0.00,fowsr,2013-05-17 19:30:00,
2013-05-17 15:35:00,74.1,54.8,30.13,East,90,3.1,4.5,42,0.00,,,0.00,fowsr,2013-05-17 19:35:00,
2013-05-17 15:40:00,74.8,56.9,30.13,South,180,1.6,3.1,45,0.00,,,0.00,fowsr,2013-05-17 19:40:00,
2013-05-17 15:45:00,75.4,56.4,30.12,East,90,3.1,3.8,43,0.00,,,0.00,fowsr,2013-05-17 19:45:00,
2013-05-17 15:50:00,74.8,56.9,30.12,South,180,1.6,2.2,45,0.00,,,0.00,fowsr,2013-05-17 19:50:00,
2013-05-17 15:55:00,75.9,57.4,30.12,SE,135,1.6,3.1,44,0.00,,,0.00,fowsr,2013-05-17 19:55:00,
2013-05-17 16:00:00,76.5,56.4,30.12,NNE,22,1.6,3.1,41,0.00,,,0.00,fowsr,2013-05-17 20:00:00,
2013-05-17 16:05:00,76.8,57.7,30.12,NE,45,1.6,2.2,43,0.00,,,0.00,fowsr,2013-05-17 20:05:00,
2013-05-17 16:10:00,76.8,55.1,30.12,East,90,1.6,2.2,38,0.00,,,0.00,fowsr,2013-05-17 20:10:00,
2013-05-17 16:15:00,77.0,56.3,30.12,SW,225,1.6,2.2,40,0.00,,,0.00,fowsr,2013-05-17 20:15:00,
2013-05-17 16:20:00,77.5,56.8,30.12,South,180,1.6,3.1,40,0.00,,,0.00,fowsr,2013-05-17 20:20:00,
2013-05-17 16:25:00,77.5,55.7,30.12,SW,225,1.6,2.2,38,0.00,,,0.00,fowsr,2013-05-17 20:25:00,
2013-05-17 16:30:00,78.1,56.2,30.12,NE,45,1.6,3.1,38,0.00,,,0.00,fowsr,2013-05-17 20:30:00,
2013-05-17 16:35:00,78.4,55.4,30.13,NW,315,1.6,3.8,36,0.00,,,0.00,fowsr,2013-05-17 20:35:00,
2013-05-17 16:40:00,78.3,54.6,30.13,North,0,2.2,5.4,35,0.00,,,0.00,fowsr,2013-05-17 20:40:00,
2013-05-17 16:45:00,78.1,54.5,30.13,NE,45,1.6,2.2,35,0.00,,,0.00,fowsr,2013-05-17 20:45:00,
2013-05-17 16:50:00,78.4,55.4,30.13,East,90,1.6,3.1,36,0.00,,,0.00,fowsr,2013-05-17 20:50:00,
2013-05-17 16:55:00,78.6,55.5,30.12,South,180,2.2,6.0,36,0.00,,,0.00,fowsr,2013-05-17 20:55:00,
2013-05-17 17:00:00,78.1,54.5,30.13,East,90,0.7,1.6,35,0.00,,,0.00,fowsr,2013-05-17 21:00:00,
2013-05-17 17:05:00,77.9,54.9,30.13,SSW,202,0.7,2.2,36,0.00,,,0.00,fowsr,2013-05-17 21:05:00,
2013-05-17 17:10:00,78.1,55.6,30.13,ESE,112,1.6,2.2,37,0.00,,,0.00,fowsr,2013-05-17 21:10:00,
2013-05-17 17:20:00,78.3,54.6,30.13,NE,45,1.6,3.1,35,0.00,,,0.00,fowsr,2013-05-17 21:20:00,
2013-05-17 17:25:00,78.3,54.6,30.14,NE,45,0.7,2.2,35,0.00,,,0.00,fowsr,2013-05-17 21:25:00,
2013-05-17 17:30:00,78.3,54.0,30.14,East,90,2.2,3.8,34,0.00,,,0.00,fowsr,2013-05-17 21:30:00,
2013-05-17 17:35:00,78.1,53.9,30.14,NE,45,0.7,1.6,34,0.00,,,0.00,fowsr,2013-05-17 21:35:00,
2013-05-17 17:40:00,78.4,53.6,30.14,SW,225,1.6,2.2,33,0.00,,,0.00,fowsr,2013-05-17 21:40:00,
2013-05-17 17:45:00,78.4,54.8,30.14,East,90,0.7,1.6,35,0.00,,,0.00,fowsr,2013-05-17 21:45:00,
2013-05-17 17:50:00,78.3,54.0,30.14,East,90,0.0,0.7,34,0.00,,,0.00,fowsr,2013-05-17 21:50:00,
2013-05-17 17:55:00,78.3,54.0,30.14,ESE,112,1.6,3.1,34,0.00,,,0.00,fowsr,2013-05-17 21:55:00,
2013-05-17 18:00:00,77.7,53.6,30.14,East,90,0.7,2.2,34,0.00,,,0.00,fowsr,2013-05-17 22:00:00,
2013-05-17 18:05:00,77.7,53.6,30.14,East,90,1.6,2.2,34,0.00,,,0.00,fowsr,2013-05-17 22:05:00,
2013-05-17 18:10:00,77.7,53.6,30.14,East,90,1.6,3.1,34,0.00,,,0.00,fowsr,2013-05-17 22:10:00,
2013-05-17 18:15:00,77.7,54.2,30.14,North,0,0.0,1.6,35,0.00,,,0.00,fowsr,2013-05-17 22:15:00,
2013-05-17 18:20:00,77.2,58.5,30.14,SW,225,0.0,0.7,44,0.00,,,0.00,fowsr,2013-05-17 22:20:00,
2013-05-17 18:25:00,75.7,58.2,30.15,North,0,0.7,1.6,46,0.00,,,0.00,fowsr,2013-05-17 22:25:00,
2013-05-17 18:30:00,73.8,57.3,30.14,NW,315,0.0,1.6,48,0.00,,,0.00,fowsr,2013-05-17 22:30:00,
2013-05-17 18:35:00,72.1,57.2,30.15,NW,315,0.7,2.2,51,0.00,,,0.00,fowsr,2013-05-17 22:35:00,
2013-05-17 18:40:00,71.1,57.0,30.15,NE,45,0.7,1.6,53,0.00,,,0.00,fowsr,2013-05-17 22:40:00,
2013-05-17 18:45:00,70.3,56.7,30.15,North,0,1.6,2.2,54,0.00,,,0.00,fowsr,2013-05-17 22:45:00,
2013-05-17 18:50:00,69.8,56.6,30.15,West,270,0.0,0.7,55,0.00,,,0.00,fowsr,2013-05-17 22:50:00,
2013-05-17 18:55:00,69.1,56.3,30.15,NW,315,0.7,1.6,56,0.00,,,0.00,fowsr,2013-05-17 22:55:00,
2013-05-17 19:00:00,68.4,55.7,30.16,NW,315,0.0,1.6,56,0.00,,,0.00,fowsr,2013-05-17 23:00:00,
2013-05-17 19:05:00,67.8,55.9,30.16,NW,315,0.7,2.2,58,0.00,,,0.00,fowsr,2013-05-17 23:05:00,
2013-05-17 19:10:00,67.3,55.1,30.16,NW,315,0.0,0.7,57,0.00,,,0.00,fowsr,2013-05-17 23:10:00,
2013-05-17 19:15:00,66.6,54.8,30.16,NW,315,0.7,1.6,58,0.00,,,0.00,fowsr,2013-05-17 23:15:00,
2013-05-17 19:20:00,65.8,54.1,30.16,North,0,0.7,1.6,58,0.00,,,0.00,fowsr,2013-05-17 23:20:00,
2013-05-17 19:25:00,65.5,54.5,30.16,NW,315,0.0,0.7,60,0.00,,,0.00,fowsr,2013-05-17 23:25:00,
2013-05-17 19:30:00,65.1,54.5,30.16,North,0,0.0,1.6,61,0.00,,,0.00,fowsr,2013-05-17 23:30:00,
2013-05-17 19:35:00,64.6,54.3,30.16,NW,315,0.0,0.7,62,0.00,,,0.00,fowsr,2013-05-17 23:35:00,
2013-05-17 19:40:00,64.0,54.1,30.16,North,0,0.0,0.7,63,0.00,,,0.00,fowsr,2013-05-17 23:40:00,
2013-05-17 19:45:00,63.7,54.1,30.17,North,0,0.0,0.7,64,0.00,,,0.00,fowsr,2013-05-17 23:45:00,
2013-05-17 19:50:00,63.5,53.9,30.17,North,0,0.0,2.2,64,0.00,,,0.00,fowsr,2013-05-17 23:50:00,
2013-05-17 19:55:00,63.1,53.9,30.17,North,0,0.7,1.6,65,0.00,,,0.00,fowsr,2013-05-17 23:55:00,
2013-05-17 20:00:00,62.8,54.2,30.18,North,0,0.0,1.6,67,0.00,,,0.00,fowsr,2013-05-18 00:00:00,
2013-05-17 20:05:00,62.6,54.7,30.18,North,0,0.7,2.2,69,0.00,,,0.00,fowsr,2013-05-18 00:05:00,
2013-05-17 20:10:00,62.2,55.2,30.18,West,270,0.7,2.2,72,0.00,,,0.00,fowsr,2013-05-18 00:10:00,
2013-05-17 20:15:00,61.9,54.9,30.18,NW,315,0.7,2.2,72,0.00,,,0.00,fowsr,2013-05-18 00:15:00,
2013-05-17 20:20:00,61.5,54.8,30.19,North,0,0.7,2.2,73,0.00,,,0.00,fowsr,2013-05-18 00:20:00,
2013-05-17 20:25:00,61.3,54.9,30.19,West,270,0.0,0.7,74,0.00,,,0.00,fowsr,2013-05-18 00:25:00,
2013-05-17 20:30:00,61.2,54.7,30.19,NE,45,0.0,0.0,74,0.00,,,0.00,fowsr,2013-05-18 00:30:00,
2013-05-17 20:35:00,61.0,54.9,30.19,NW,315,0.7,1.6,75,0.00,,,0.00,fowsr,2013-05-18 00:35:00,
2013-05-17 20:40:00,60.8,54.7,30.19,North,0,0.7,1.6,75,0.00,,,0.00,fowsr,2013-05-18 00:40:00,
2013-05-17 20:45:00,60.6,55.1,30.19,SE,135,0.0,1.6,77,0.00,,,0.00,fowsr,2013-05-18 00:45:00,
2013-05-17 20:50:00,60.6,55.1,30.19,South,180,0.0,0.7,77,0.00,,,0.00,fowsr,2013-05-18 00:50:00,
2013-05-17 20:55:00,60.4,54.9,30.20,West,270,1.6,3.1,77,0.00,,,0.00,fowsr,2013-05-18 00:55:00,
2013-05-17 21:00:00,60.3,54.7,30.20,NW,315,0.7,1.6,77,0.00,,,0.00,fowsr,2013-05-18 01:00:00,
2013-05-17 21:05:00,60.3,54.7,30.20,NW,315,0.0,0.7,77,0.00,,,0.00,fowsr,2013-05-18 01:05:00,
2013-05-17 21:10:00,60.3,54.4,30.20,NW,315,0.7,1.6,76,0.00,,,0.00,fowsr,2013-05-18 01:10:00,
2013-05-17 21:15:00,60.3,54.4,30.21,NW,315,0.7,1.6,76,0.00,,,0.00,fowsr,2013-05-18 01:15:00,
2013-05-17 21:20:00,60.1,54.0,30.21,North,0,0.0,0.7,75,0.00,,,0.00,fowsr,2013-05-18 01:20:00,
2013-05-17 21:25:00,60.1,53.7,30.21,North,0,0.0,0.7,74,0.00,,,0.00,fowsr,2013-05-18 01:25:00,
2013-05-17 21:30:00,60.1,53.7,30.21,NW,315,1.6,3.1,74,0.00,,,0.00,fowsr,2013-05-18 01:30:00,
2013-05-17 21:35:00,59.9,53.5,30.21,NW,315,0.7,1.6,74,0.00,,,0.00,fowsr,2013-05-18 01:35:00,
2013-05-17 21:40:00,59.9,53.5,30.22,NW,315,0.7,1.6,74,0.00,,,0.00,fowsr,2013-05-18 01:40:00,
2013-05-17 21:45:00,59.7,53.4,30.22,NW,315,0.0,1.6,74,0.00,,,0.00,fowsr,2013-05-18 01:45:00,
2013-05-17 21:50:00,59.7,53.4,30.22,NW,315,0.0,0.7,74,0.00,,,0.00,fowsr,2013-05-18 01:50:00,
2013-05-17 21:55:00,59.5,53.5,30.22,West,270,1.6,3.1,75,0.00,,,0.00,fowsr,2013-05-18 01:55:00,
2013-05-17 22:00:00,59.5,53.5,30.22,NW,315,1.6,3.8,75,0.00,,,0.00,fowsr,2013-05-18 02:00:00,
2013-05-17 22:05:00,59.5,53.5,30.22,West,270,0.0,1.6,75,0.00,,,0.00,fowsr,2013-05-18 02:05:00,
2013-05-17 22:10:00,59.4,53.0,30.22,SW,225,0.7,2.2,74,0.00,,,0.00,fowsr,2013-05-18 02:10:00,
2013-05-17 22:15:00,59.4,53.0,30.22,West,270,0.7,3.8,74,0.00,,,0.00,fowsr,2013-05-18 02:15:00,
2013-05-17 22:20:00,59.4,53.0,30.22,West,270,1.6,2.2,74,0.00,,,0.00,fowsr,2013-05-18 02:20:00,
2013-05-17 22:25:00,59.2,52.9,30.22,NW,315,0.7,1.6,74,0.00,,,0.00,fowsr,2013-05-18 02:25:00,
2013-05-17 22:30:00,59.2,52.6,30.22,NE,45,0.0,1.6,73,0.00,,,0.00,fowsr,2013-05-18 02:30:00,
2013-05-17 22:35:00,59.2,52.6,30.22,North,0,0.0,0.7,73,0.00,,,0.00,fowsr,2013-05-18 02:35:00,
2013-05-17 22:40:00,59.2,52.6,30.22,West,270,1.6,2.2,73,0.00,,,0.00,fowsr,2013-05-18 02:40:00,
2013-05-17 22:45:00,59.2,52.6,30.22,NW,315,0.7,2.2,73,0.00,,,0.00,fowsr,2013-05-18 02:45:00,
2013-05-17 22:50:00,59.0,52.4,30.23,North,0,0.0,1.6,73,0.00,,,0.00,fowsr,2013-05-18 02:50:00,
2013-05-17 22:55:00,59.0,52.4,30.22,West,270,0.7,1.6,73,0.00,,,0.00,fowsr,2013-05-18 02:55:00,
2013-05-17 23:00:00,59.0,52.4,30.22,North,0,0.7,1.6,73,0.00,,,0.00,fowsr,2013-05-18 03:00:00,
2013-05-17 23:05:00,59.0,52.4,30.22,North,0,0.7,1.6,73,0.00,,,0.00,fowsr,2013-05-18 03:05:00,
2013-05-17 23:10:00,59.2,52.6,30.22,West,270,0.7,1.6,73,0.00,,,0.00,fowsr,2013-05-18 03:10:00,
2013-05-17 23:15:00,59.2,52.3,30.22,ENE,67,0.7,2.2,72,0.00,,,0.00,fowsr,2013-05-18 03:15:00,
2013-05-17 23:20:00,59.4,52.2,30.22,North,0,0.7,1.6,71,0.00,,,0.00,fowsr,2013-05-18 03:20:00,
2013-05-17 23:25:00,59.5,52.3,30.22,NE,45,0.7,1.6,71,0.00,,,0.00,fowsr,2013-05-18 03:25:00,
2013-05-17 23:30:00,59.5,52.1,30.22,North,0,0.7,1.6,70,0.00,,,0.00,fowsr,2013-05-18 03:30:00,
2013-05-17 23:35:00,59.5,52.1,30.23,NE,45,0.0,1.6,70,0.00,,,0.00,fowsr,2013-05-18 03:35:00,
2013-05-17 23:45:00,59.5,51.5,30.23,NW,315,0.7,2.2,68,0.00,,,0.00,fowsr,2013-05-18 03:45:00,
2013-05-17 23:55:00,59.4,51.3,30.23,North,0,0.7,1.6,68,0.00,,,0.00,fowsr,2013-05-18 03:55:00,